createdAt,value
2022-11-24T00:00:12.534Z,4.42
2022-11-24T00:01:21.381Z,4.42
2022-11-24T00:02:24.140Z,4.43
2022-11-24T00:03:27.161Z,4.43
2022-11-24T00:04:29.819Z,4.43
2022-11-24T00:05:38.661Z,4.46
2022-11-24T00:06:41.535Z,4.51
2022-11-24T00:07:44.760Z,4.51
2022-11-24T00:08:48.019Z,4.49
2022-11-24T00:09:50.734Z,4.46
2022-11-24T00:10:53.420Z,4.46
2022-11-24T00:11:56.214Z,4.45
2022-11-24T00:12:58.941Z,4.44
2022-11-24T00:14:02.264Z,4.43
2022-11-24T00:15:05.292Z,4.43
2022-11-24T00:16:22.511Z,4.42
2022-11-24T00:17:25.347Z,4.42
2022-11-24T00:18:28.087Z,4.43
2022-11-24T00:19:30.954Z,4.49
2022-11-24T00:20:33.736Z,4.50
2022-11-24T00:21:37.624Z,4.48
2022-11-24T00:22:40.284Z,4.48
2022-11-24T00:23:43.628Z,4.45
2022-11-24T00:24:46.371Z,4.46
2022-11-24T00:25:49.030Z,4.46
2022-11-24T00:26:51.934Z,4.47
2022-11-24T00:27:54.701Z,4.50
2022-11-24T00:29:01.472Z,4.49
2022-11-24T00:30:04.780Z,4.52
2022-11-24T00:31:21.260Z,4.53
2022-11-24T00:32:24.074Z,4.52
2022-11-24T00:33:26.830Z,4.49
2022-11-24T00:34:29.643Z,4.48
2022-11-24T00:35:32.436Z,4.60
2022-11-24T00:36:36.234Z,4.64
2022-11-24T00:37:39.035Z,4.58
2022-11-24T00:38:44.089Z,4.56
2022-11-24T00:39:47.103Z,4.56
2022-11-24T00:40:49.954Z,4.56
2022-11-24T00:41:52.692Z,4.48
2022-11-24T00:42:55.444Z,4.48
2022-11-24T00:43:59.435Z,4.46
2022-11-24T00:45:12.902Z,4.45
2022-11-24T00:46:16.491Z,4.49
2022-11-24T00:47:19.155Z,4.49
2022-11-24T00:48:22.394Z,4.50
2022-11-24T00:49:25.072Z,4.48
2022-11-24T00:50:28.348Z,4.46
2022-11-24T00:51:31.767Z,4.54
2022-11-24T00:52:34.591Z,4.60
2022-11-24T00:53:41.161Z,4.61
2022-11-24T00:54:44.051Z,4.59
2022-11-24T00:55:50.208Z,4.57
2022-11-24T00:56:53.049Z,4.51
2022-11-24T00:57:55.904Z,4.50
2022-11-24T00:58:59.178Z,4.52
2022-11-24T01:00:02.106Z,4.48
2022-11-24T01:01:10.885Z,4.47
2022-11-24T01:02:13.895Z,4.48
2022-11-24T01:03:17.637Z,4.49
2022-11-24T01:04:20.481Z,4.45
2022-11-24T01:05:23.164Z,4.43
2022-11-24T01:06:26.754Z,4.43
2022-11-24T01:07:29.443Z,4.43
2022-11-24T01:08:36.625Z,4.41
2022-11-24T01:09:39.697Z,4.44
2022-11-24T01:10:42.657Z,4.45
2022-11-24T01:12:04.387Z,4.48
2022-11-24T01:13:07.459Z,4.48
2022-11-24T01:14:10.391Z,4.45
2022-11-24T01:15:13.062Z,4.46
2022-11-24T01:16:30.494Z,4.48
2022-11-24T01:17:33.190Z,4.52
2022-11-24T01:18:36.334Z,4.53
2022-11-24T01:19:38.923Z,4.49
2022-11-24T01:20:41.867Z,4.48
2022-11-24T01:21:44.782Z,4.46
2022-11-24T01:22:49.092Z,4.49
2022-11-24T01:23:51.838Z,4.51
2022-11-24T01:24:54.549Z,4.55
2022-11-24T01:25:57.257Z,4.62
2022-11-24T01:26:59.889Z,4.62
2022-11-24T01:28:02.656Z,4.58
2022-11-24T01:29:05.787Z,4.58
2022-11-24T01:30:09.211Z,4.49
2022-11-24T01:31:12.113Z,4.52
2022-11-24T01:32:14.855Z,4.53
2022-11-24T01:33:17.544Z,4.50
2022-11-24T01:34:20.286Z,4.48
2022-11-24T01:35:22.931Z,4.46
2022-11-24T01:36:26.292Z,4.58
2022-11-24T01:37:29.128Z,4.50
2022-11-24T01:38:32.326Z,4.45
2022-11-24T01:39:35.023Z,4.46
2022-11-24T01:40:37.710Z,4.42
2022-11-24T01:41:40.679Z,4.37
2022-11-24T01:42:48.413Z,4.34
2022-11-24T01:43:52.490Z,4.33
2022-11-24T01:45:35.315Z,4.37
2022-11-24T01:46:47.653Z,4.33
2022-11-24T01:47:50.330Z,4.33
2022-11-24T01:48:57.795Z,4.35
2022-11-24T01:50:03.347Z,4.31
2022-11-24T01:51:33.171Z,4.31
2022-11-24T01:52:43.593Z,4.33
2022-11-24T01:54:01.400Z,4.37
2022-11-24T01:55:12.116Z,4.34
2022-11-24T01:56:15.387Z,4.34
2022-11-24T01:57:24.748Z,4.41
2022-11-24T01:58:32.707Z,4.46
2022-11-24T01:59:35.695Z,4.44
2022-11-24T02:00:41.533Z,4.42
2022-11-24T02:01:44.473Z,4.41
2022-11-24T02:02:47.193Z,4.36
2022-11-24T02:03:50.866Z,4.36
2022-11-24T02:04:54.690Z,4.37
2022-11-24T02:06:00.125Z,4.36
2022-11-24T02:07:06.232Z,4.34
2022-11-24T02:08:26.006Z,4.34
2022-11-24T02:09:35.362Z,4.39
2022-11-24T02:10:38.957Z,4.39
2022-11-24T02:11:43.103Z,4.37
2022-11-24T02:12:48.009Z,4.34
2022-11-24T02:13:53.523Z,4.45
2022-11-24T02:14:56.896Z,4.36
2022-11-24T02:16:00.257Z,4.32
2022-11-24T02:17:03.539Z,4.30
2022-11-24T02:18:06.571Z,4.27
2022-11-24T02:19:24.769Z,4.30
2022-11-24T02:20:27.773Z,4.24
2022-11-24T02:21:30.583Z,4.25
2022-11-24T02:23:21.608Z,4.31
2022-11-24T02:24:39.891Z,4.27
2022-11-24T02:25:56.446Z,4.26
2022-11-24T02:26:59.488Z,4.24
2022-11-24T02:28:07.340Z,4.27
2022-11-24T02:29:12.009Z,4.27
2022-11-24T02:30:15.015Z,4.23
2022-11-24T02:31:18.380Z,4.23
2022-11-24T02:32:21.775Z,4.24
2022-11-24T02:33:25.574Z,4.27
2022-11-24T02:34:28.492Z,4.28
2022-11-24T02:35:32.154Z,4.28
2022-11-24T02:36:35.095Z,4.28
2022-11-24T02:37:38.300Z,4.30
2022-11-24T02:38:41.173Z,4.34
2022-11-24T02:39:43.866Z,4.34
2022-11-24T02:40:50.205Z,4.33
2022-11-24T02:41:59.448Z,4.34
2022-11-24T02:43:09.450Z,4.34
2022-11-24T02:44:15.812Z,4.32
2022-11-24T02:45:18.899Z,4.36
2022-11-24T02:46:21.979Z,4.38
2022-11-24T02:47:27.183Z,4.39
2022-11-24T02:48:30.719Z,4.35
2022-11-24T02:49:34.045Z,4.33
2022-11-24T02:50:37.117Z,4.19
2022-11-24T02:51:39.855Z,4.10
2022-11-24T02:52:42.606Z,4.11
2022-11-24T02:53:45.428Z,4.12
2022-11-24T02:54:48.107Z,4.10
2022-11-24T02:55:50.749Z,4.12
2022-11-24T02:56:53.449Z,4.13
2022-11-24T02:57:56.356Z,4.18
2022-11-24T02:58:59.090Z,4.11
2022-11-24T03:00:01.923Z,4.07
2022-11-24T03:01:04.845Z,4.09
2022-11-24T03:02:07.494Z,4.10
2022-11-24T03:03:10.630Z,4.09
2022-11-24T03:04:13.376Z,4.02
2022-11-24T03:05:16.144Z,4.03
2022-11-24T03:06:18.733Z,3.98
2022-11-24T03:07:23.164Z,4.16
2022-11-24T03:08:25.952Z,4.11
2022-11-24T03:09:28.825Z,4.01
2022-11-24T03:10:31.582Z,3.95
2022-11-24T03:11:34.452Z,3.96
2022-11-24T03:12:37.413Z,3.92
2022-11-24T03:13:40.058Z,3.92
2022-11-24T03:14:42.772Z,3.91
2022-11-24T03:15:45.523Z,3.89
2022-11-24T03:16:48.331Z,3.89
2022-11-24T03:17:51.213Z,3.88
2022-11-24T03:18:54.090Z,3.93
2022-11-24T03:20:02.944Z,3.97
2022-11-24T03:21:07.381Z,3.92
2022-11-24T03:22:10.210Z,3.94
2022-11-24T03:23:12.852Z,3.91
2022-11-24T03:24:15.572Z,3.89
2022-11-24T03:25:18.860Z,3.88
2022-11-24T03:26:23.477Z,3.87
2022-11-24T03:27:26.457Z,3.90
2022-11-24T03:28:29.451Z,3.88
2022-11-24T03:29:32.213Z,3.86
2022-11-24T03:30:35.323Z,3.91
2022-11-24T03:31:38.187Z,3.84
2022-11-24T03:32:45.376Z,3.83
2022-11-24T03:33:48.041Z,3.80
2022-11-24T03:34:50.802Z,3.76
2022-11-24T03:35:53.414Z,3.79
2022-11-24T03:36:56.023Z,3.80
2022-11-24T03:37:58.694Z,3.74
2022-11-24T03:39:01.610Z,3.72
2022-11-24T03:40:04.852Z,3.76
2022-11-24T03:41:07.732Z,3.73
2022-11-24T03:42:10.434Z,3.71
2022-11-24T03:43:13.328Z,3.66
2022-11-24T03:44:15.997Z,3.69
2022-11-24T03:46:42.415Z,3.65
2022-11-24T03:47:45.171Z,3.63
2022-11-24T03:48:47.984Z,3.59
2022-11-24T03:49:50.759Z,3.64
2022-11-24T03:50:59.217Z,3.75
2022-11-24T03:52:07.651Z,3.66
2022-11-24T03:53:11.075Z,3.69
2022-11-24T03:54:13.829Z,3.74
2022-11-24T03:55:16.617Z,3.80
2022-11-24T03:56:19.354Z,3.84
2022-11-24T03:57:22.149Z,3.83
2022-11-24T03:58:25.796Z,3.71
2022-11-24T03:59:28.384Z,3.63
2022-11-24T04:00:31.923Z,3.65
2022-11-24T04:01:35.121Z,3.72
2022-11-24T04:02:38.457Z,3.67
2022-11-24T04:03:41.169Z,3.64
2022-11-24T04:04:48.472Z,3.57
2022-11-24T04:05:52.426Z,3.61
2022-11-24T04:06:55.121Z,3.69
2022-11-24T04:07:58.101Z,3.58
2022-11-24T04:09:01.177Z,3.55
2022-11-24T04:10:04.500Z,3.56
2022-11-24T04:11:07.509Z,3.65
2022-11-24T04:12:29.376Z,3.63
2022-11-24T04:13:32.131Z,3.57
2022-11-24T04:14:35.117Z,3.55
2022-11-24T04:15:40.644Z,3.50
2022-11-24T04:16:43.441Z,3.52
2022-11-24T04:17:47.257Z,3.48
2022-11-24T04:18:53.081Z,3.48
2022-11-24T04:19:55.838Z,3.47
2022-11-24T04:20:58.538Z,3.47
2022-11-24T04:22:01.134Z,3.59
2022-11-24T04:23:04.752Z,3.62
2022-11-24T04:24:08.110Z,3.65
2022-11-24T04:25:11.558Z,3.69
2022-11-24T04:26:14.539Z,3.61
2022-11-24T04:27:17.385Z,3.56
2022-11-24T04:28:20.335Z,3.56
2022-11-24T04:29:23.397Z,3.56
2022-11-24T04:30:28.168Z,3.53
2022-11-24T04:31:30.937Z,3.51
2022-11-24T04:32:33.676Z,3.49
2022-11-24T04:33:36.454Z,3.48
2022-11-24T04:34:39.131Z,3.50
2022-11-24T04:35:41.971Z,3.47
2022-11-24T04:36:44.676Z,3.48
2022-11-24T04:37:47.607Z,3.47
2022-11-24T04:39:19.500Z,3.51
2022-11-24T04:40:16.257Z,3.56
2022-11-24T04:41:19.086Z,3.52
2022-11-24T04:42:21.973Z,3.52
2022-11-24T04:43:24.819Z,3.54
2022-11-24T04:44:27.549Z,3.54
2022-11-24T04:45:30.491Z,3.54
2022-11-24T04:46:33.236Z,3.50
2022-11-24T04:47:36.204Z,3.51
2022-11-24T04:48:42.210Z,3.52
2022-11-24T04:49:47.202Z,3.58
2022-11-24T04:50:50.079Z,3.55
2022-11-24T04:51:52.933Z,3.49
2022-11-24T04:52:55.939Z,3.44
2022-11-24T04:53:58.593Z,3.44
2022-11-24T04:55:01.615Z,3.42
2022-11-24T04:56:06.495Z,3.39
2022-11-24T04:57:16.841Z,3.38
2022-11-24T04:58:20.253Z,3.42
2022-11-24T04:59:23.025Z,3.44
2022-11-24T05:00:25.777Z,3.38
2022-11-24T05:01:29.271Z,3.39
2022-11-24T05:02:31.959Z,3.39
2022-11-24T05:03:36.222Z,3.42
2022-11-24T05:04:39.271Z,3.32
2022-11-24T05:05:41.890Z,3.34
2022-11-24T05:06:44.835Z,3.28
2022-11-24T05:07:47.698Z,3.24
2022-11-24T05:08:52.328Z,3.22
2022-11-24T05:10:13.981Z,3.15
2022-11-24T05:11:16.961Z,3.15
2022-11-24T05:12:19.700Z,3.29
2022-11-24T05:13:22.453Z,3.26
2022-11-24T05:14:25.361Z,3.23
2022-11-24T05:15:28.956Z,3.18
2022-11-24T05:16:32.235Z,3.11
2022-11-24T05:17:37.956Z,3.11
2022-11-24T05:18:40.719Z,3.25
2022-11-24T05:19:43.422Z,3.28
2022-11-24T05:20:46.574Z,3.24
2022-11-24T05:21:49.331Z,3.23
2022-11-24T05:22:52.065Z,3.20
2022-11-24T05:23:54.749Z,3.16
2022-11-24T05:24:58.241Z,3.12
2022-11-24T05:26:01.743Z,3.11
2022-11-24T05:27:04.534Z,3.25
2022-11-24T05:28:11.832Z,3.24
2022-11-24T05:29:14.639Z,3.17
2022-11-24T05:30:17.647Z,3.14
2022-11-24T05:31:23.912Z,3.18
2022-11-24T05:32:26.781Z,3.18
2022-11-24T05:33:30.516Z,3.22
2022-11-24T05:34:33.813Z,3.24
2022-11-24T05:35:36.894Z,3.17
2022-11-24T05:36:56.454Z,3.14
2022-11-24T05:37:59.439Z,3.12
2022-11-24T05:39:02.275Z,3.13
2022-11-24T05:40:07.087Z,3.19
2022-11-24T05:41:09.813Z,3.19
2022-11-24T05:42:31.661Z,3.21
2022-11-24T05:43:35.122Z,3.21
2022-11-24T05:44:37.862Z,3.17
2022-11-24T05:45:40.660Z,3.16
2022-11-24T05:46:43.641Z,3.16
2022-11-24T05:47:47.446Z,3.24
2022-11-24T05:48:50.247Z,3.22
2022-11-24T05:49:53.361Z,3.22
2022-11-24T05:50:57.700Z,3.23
2022-11-24T05:52:00.586Z,3.29
2022-11-24T05:53:13.978Z,3.25
2022-11-24T05:54:16.776Z,3.32
2022-11-24T05:55:19.760Z,3.28
2022-11-24T05:56:22.876Z,3.23
2022-11-24T05:57:25.701Z,3.27
2022-11-24T05:58:31.334Z,3.28
2022-11-24T05:59:34.260Z,3.23
2022-11-24T06:00:37.754Z,3.18
2022-11-24T06:01:40.704Z,3.29
2022-11-24T06:02:43.751Z,3.38
2022-11-24T06:03:46.625Z,3.37
2022-11-24T06:04:49.422Z,3.36
2022-11-24T06:05:52.209Z,3.30
2022-11-24T06:06:55.119Z,3.26
2022-11-24T06:07:59.409Z,3.26
2022-11-24T06:09:02.584Z,3.25
2022-11-24T06:10:05.866Z,3.24
2022-11-24T06:11:18.551Z,3.29
2022-11-24T06:12:21.573Z,3.27
2022-11-24T06:13:24.483Z,3.28
2022-11-24T06:14:27.525Z,3.31
2022-11-24T06:15:30.246Z,3.33
2022-11-24T06:16:33.526Z,3.29
2022-11-24T06:17:36.404Z,3.30
2022-11-24T06:18:39.655Z,3.39
2022-11-24T06:19:45.819Z,3.42
2022-11-24T06:21:09.757Z,3.31
2022-11-24T06:22:12.936Z,3.25
2022-11-24T06:23:20.122Z,3.31
2022-11-24T06:24:22.888Z,3.29
2022-11-24T06:25:26.528Z,3.26
2022-11-24T06:26:29.434Z,3.32
2022-11-24T06:27:32.591Z,3.33
2022-11-24T06:28:36.823Z,3.28
2022-11-24T06:29:39.688Z,3.25
2022-11-24T06:30:42.465Z,3.32
2022-11-24T06:31:45.292Z,3.28
2022-11-24T06:32:51.698Z,3.28
2022-11-24T06:33:54.667Z,3.35
2022-11-24T06:34:57.817Z,3.34
2022-11-24T06:36:07.390Z,3.31
2022-11-24T06:37:10.445Z,3.30
2022-11-24T06:38:13.340Z,3.28
2022-11-24T06:39:16.139Z,3.27
2022-11-24T06:40:19.088Z,3.30
2022-11-24T06:41:21.877Z,3.36
2022-11-24T06:42:24.814Z,3.39
2022-11-24T06:43:29.563Z,3.35
2022-11-24T06:44:32.785Z,3.34
2022-11-24T06:45:36.195Z,3.38
2022-11-24T06:46:39.600Z,3.43
2022-11-24T06:47:42.396Z,3.46
2022-11-24T06:48:45.407Z,3.48
2022-11-24T06:49:48.146Z,3.52
2022-11-24T06:50:52.028Z,3.59
2022-11-24T06:51:55.407Z,3.60
2022-11-24T06:52:58.320Z,3.54
2022-11-24T06:54:01.880Z,3.49
2022-11-24T06:55:05.076Z,3.47
2022-11-24T06:56:16.150Z,3.47
2022-11-24T06:57:19.605Z,3.46
2022-11-24T06:58:22.853Z,3.46
2022-11-24T06:59:26.770Z,3.44
2022-11-24T07:00:32.274Z,3.46
2022-11-24T07:01:35.022Z,3.46
2022-11-24T07:02:42.491Z,3.47
2022-11-24T07:03:49.927Z,3.46
2022-11-24T07:04:52.712Z,3.42
2022-11-24T07:05:59.037Z,3.46
2022-11-24T07:07:03.190Z,3.46
2022-11-24T07:08:06.212Z,3.44
2022-11-24T07:09:15.869Z,3.43
2022-11-24T07:10:19.019Z,3.43
2022-11-24T07:11:24.425Z,3.43
2022-11-24T07:12:27.474Z,3.40
2022-11-24T07:13:30.244Z,3.53
2022-11-24T07:14:33.706Z,3.50
2022-11-24T07:15:36.878Z,3.48
2022-11-24T07:16:40.119Z,3.48
2022-11-24T07:17:42.909Z,3.54
2022-11-24T07:18:47.874Z,3.59
2022-11-24T07:19:50.613Z,3.62
2022-11-24T07:20:53.484Z,3.60
2022-11-24T07:21:56.732Z,3.59
2022-11-24T07:22:59.848Z,3.59
2022-11-24T07:24:02.627Z,3.57
2022-11-24T07:25:07.614Z,3.59
2022-11-24T07:26:12.536Z,3.63
2022-11-24T07:27:15.356Z,3.60
2022-11-24T07:28:18.288Z,3.67
2022-11-24T07:29:21.256Z,3.64
2022-11-24T07:30:24.736Z,3.63
2022-11-24T07:31:27.698Z,3.70
2022-11-24T07:32:30.946Z,3.67
2022-11-24T07:33:34.204Z,3.71
2022-11-24T07:34:37.242Z,3.68
2022-11-24T07:35:40.142Z,3.71
2022-11-24T07:36:43.255Z,3.80
2022-11-24T07:37:45.919Z,3.78
2022-11-24T07:38:49.351Z,3.76
2022-11-24T07:39:52.130Z,3.78
2022-11-24T07:40:54.937Z,3.81
2022-11-24T07:42:00.570Z,3.78
2022-11-24T07:43:03.692Z,3.80
2022-11-24T07:44:06.681Z,3.78
2022-11-24T07:45:09.934Z,3.86
2022-11-24T07:46:15.874Z,3.87
2022-11-24T07:47:18.715Z,3.90
2022-11-24T07:48:23.287Z,3.86
2022-11-24T07:49:26.014Z,3.82
2022-11-24T07:50:29.068Z,3.87
2022-11-24T07:51:31.862Z,3.88
2022-11-24T07:52:34.807Z,3.93
2022-11-24T07:53:38.583Z,3.94
2022-11-24T07:54:41.398Z,3.92
2022-11-24T07:55:44.298Z,3.94
2022-11-24T07:56:50.156Z,4.07
2022-11-24T07:57:52.916Z,4.02
2022-11-24T07:58:55.718Z,4.03
2022-11-24T07:59:58.510Z,4.01
2022-11-24T08:01:16.572Z,4.13
2022-11-24T08:02:19.854Z,4.05
2022-11-24T08:03:24.122Z,4.11
2022-11-24T08:04:27.351Z,4.05
2022-11-24T08:05:31.144Z,4.07
2022-11-24T08:06:39.734Z,4.05
2022-11-24T08:07:46.113Z,4.07
2022-11-24T08:08:49.166Z,4.05
2022-11-24T08:09:52.403Z,4.02
2022-11-24T08:10:55.172Z,4.01
2022-11-24T08:11:57.891Z,3.97
2022-11-24T08:13:01.956Z,3.99
2022-11-24T08:14:04.754Z,4.02
2022-11-24T08:15:11.985Z,4.14
2022-11-24T08:16:17.536Z,4.17
2022-11-24T08:17:20.649Z,4.14
2022-11-24T08:18:24.919Z,4.16
2022-11-24T08:19:27.805Z,4.14
2022-11-24T08:20:30.782Z,4.17
2022-11-24T08:21:33.612Z,4.12
2022-11-24T08:22:36.397Z,4.11
2022-11-24T08:23:39.587Z,4.13
2022-11-24T08:24:47.338Z,4.20
2022-11-24T08:25:56.988Z,4.25
2022-11-24T08:26:59.996Z,4.17
2022-11-24T08:28:04.640Z,4.28
2022-11-24T08:29:08.150Z,4.26
2022-11-24T08:30:14.953Z,4.30
2022-11-24T08:31:19.345Z,4.31
2022-11-24T08:32:23.955Z,4.29
2022-11-24T08:33:26.691Z,4.26
2022-11-24T08:34:29.698Z,4.36
2022-11-24T08:35:35.749Z,4.35
2022-11-24T08:36:38.457Z,4.29
2022-11-24T08:37:41.306Z,4.32
2022-11-24T08:38:45.977Z,4.37
2022-11-24T08:39:49.023Z,4.37
2022-11-24T08:40:51.816Z,4.42
2022-11-24T08:41:54.584Z,4.42
2022-11-24T08:42:59.261Z,4.46
2022-11-24T08:44:01.958Z,4.47
2022-11-24T08:45:20.004Z,4.47
2022-11-24T08:46:24.615Z,4.44
2022-11-24T08:47:27.383Z,4.43
2022-11-24T08:48:30.745Z,4.43
2022-11-24T08:49:33.489Z,4.56
2022-11-24T08:50:37.721Z,4.47
2022-11-24T08:51:41.119Z,4.45
2022-11-24T08:52:44.040Z,4.49
2022-11-24T08:53:46.995Z,4.40
2022-11-24T08:54:50.589Z,4.40
2022-11-24T08:55:53.432Z,4.37
2022-11-24T08:56:56.260Z,4.40
2022-11-24T08:57:59.057Z,4.39
2022-11-24T08:59:02.875Z,4.45
2022-11-24T09:00:06.512Z,4.44
2022-11-24T09:01:15.883Z,4.42
2022-11-24T09:02:19.432Z,4.41
2022-11-24T09:03:22.379Z,4.40
2022-11-24T09:04:25.098Z,4.39
2022-11-24T09:06:50.819Z,4.41
2022-11-24T09:07:53.826Z,4.44
2022-11-24T09:08:57.933Z,4.43
2022-11-24T09:10:00.893Z,4.55
2022-11-24T09:11:09.304Z,4.48
2022-11-24T09:12:14.606Z,4.48
2022-11-24T09:13:17.947Z,4.55
2022-11-24T09:14:20.898Z,4.57
2022-11-24T09:15:23.729Z,4.57
2022-11-24T09:16:29.162Z,4.54
2022-11-24T09:17:33.070Z,4.56
2022-11-24T09:18:36.468Z,4.59
2022-11-24T09:19:42.422Z,4.55
2022-11-24T09:20:45.508Z,4.51
2022-11-24T09:21:49.123Z,4.58
2022-11-24T09:22:52.019Z,4.54
2022-11-24T09:23:56.057Z,4.48
2022-11-24T09:24:58.823Z,4.51
2022-11-24T09:26:10.369Z,4.51
2022-11-24T09:27:16.748Z,4.58
2022-11-24T09:28:19.676Z,4.60
2022-11-24T09:29:22.525Z,4.64
2022-11-24T09:30:25.265Z,4.56
2022-11-24T09:31:31.437Z,4.58
2022-11-24T09:32:34.432Z,4.64
2022-11-24T09:33:37.861Z,4.63
2022-11-24T09:34:40.635Z,4.63
2022-11-24T09:35:43.423Z,4.62
2022-11-24T09:36:49.735Z,4.68
2022-11-24T09:37:52.618Z,4.65
2022-11-24T09:38:55.977Z,4.65
2022-11-24T09:39:58.668Z,4.61
2022-11-24T09:41:27.655Z,4.57
2022-11-24T09:42:46.994Z,4.78
2022-11-24T09:44:34.151Z,4.63
2022-11-24T09:46:07.686Z,4.60
2022-11-24T09:47:23.068Z,4.66
2022-11-24T09:48:44.649Z,4.59
2022-11-24T09:49:59.331Z,4.54
2022-11-24T09:51:04.624Z,4.52
2022-11-24T09:52:15.197Z,4.46
2022-11-24T09:53:44.882Z,4.53
2022-11-24T09:55:00.710Z,4.60
2022-11-24T09:56:14.862Z,4.58
2022-11-24T09:57:21.350Z,4.63
2022-11-24T09:58:53.900Z,4.64
2022-11-24T10:00:03.757Z,4.61
2022-11-24T10:01:22.120Z,4.57
2022-11-24T10:02:26.009Z,4.55
2022-11-24T10:03:43.655Z,4.52
2022-11-24T10:04:47.613Z,4.52
2022-11-24T10:05:51.714Z,4.59
2022-11-24T10:07:30.808Z,4.63
2022-11-24T10:08:51.916Z,4.61
2022-11-24T10:10:08.837Z,4.61
2022-11-24T10:11:16.950Z,4.66
2022-11-24T10:12:39.835Z,4.66
2022-11-24T10:14:19.764Z,4.66
2022-11-24T10:16:00.343Z,4.80
2022-11-24T10:17:23.677Z,4.81
2022-11-24T10:18:44.796Z,4.71
2022-11-24T10:20:06.744Z,4.68
2022-11-24T10:21:52.372Z,4.70
2022-11-24T10:23:38.398Z,4.70
2022-11-24T10:25:09.447Z,4.71
2022-11-24T10:26:33.406Z,4.70
2022-11-24T10:27:42.306Z,4.70
2022-11-24T10:28:55.703Z,4.76
2022-11-24T10:30:00.736Z,4.75
2022-11-24T10:31:23.684Z,4.74
2022-11-24T10:32:44.255Z,4.73
2022-11-24T10:33:47.995Z,4.74
2022-11-24T10:34:50.940Z,4.79
2022-11-24T10:36:04.458Z,4.82
2022-11-24T10:37:26.021Z,4.83
2022-11-24T10:39:07.815Z,4.92
2022-11-24T10:40:56.007Z,4.86
2022-11-24T10:42:23.635Z,4.90
2022-11-24T10:43:28.322Z,4.89
2022-11-24T10:44:34.257Z,4.89
2022-11-24T10:45:39.557Z,4.90
2022-11-24T10:46:42.874Z,4.90
2022-11-24T10:47:47.622Z,4.90
2022-11-24T10:48:53.935Z,4.89
2022-11-24T10:50:24.439Z,4.88
2022-11-24T10:51:49.160Z,4.90
2022-11-24T10:52:56.829Z,4.98
2022-11-24T10:54:21.170Z,5.04
2022-11-24T10:55:24.899Z,4.99
2022-11-24T10:56:27.931Z,4.97
2022-11-24T10:57:32.606Z,4.95
2022-11-24T10:58:38.686Z,4.94
2022-11-24T10:59:41.558Z,4.98
2022-11-24T11:00:44.424Z,5.01
2022-11-24T11:01:47.376Z,5.01
2022-11-24T11:02:58.531Z,5.03
2022-11-24T11:04:01.822Z,5.02
2022-11-24T11:06:09.353Z,5.12
2022-11-24T11:07:25.404Z,5.17
2022-11-24T11:08:30.647Z,5.14
2022-11-24T11:09:33.692Z,5.13
2022-11-24T11:10:36.789Z,5.18
2022-11-24T11:11:40.197Z,5.20
2022-11-24T11:12:44.594Z,5.26
2022-11-24T11:14:02.894Z,5.32
2022-11-24T11:15:25.961Z,5.37
2022-11-24T11:16:37.350Z,5.37
2022-11-24T11:17:44.680Z,5.38
2022-11-24T11:18:49.754Z,5.35
2022-11-24T11:20:01.438Z,5.41
2022-11-24T11:21:05.747Z,5.45
2022-11-24T11:22:11.496Z,5.43
2022-11-24T11:23:42.023Z,5.54
2022-11-24T11:24:47.489Z,5.59
2022-11-24T11:25:50.325Z,5.63
2022-11-24T11:27:03.964Z,5.71
2022-11-24T11:28:30.354Z,5.71
2022-11-24T11:34:20.528Z,5.74
2022-11-24T11:35:29.090Z,5.67
2022-11-24T11:36:33.387Z,5.68
2022-11-24T11:37:36.236Z,5.74
2022-11-24T11:38:40.793Z,5.75
2022-11-24T11:39:49.077Z,5.72
2022-11-24T11:40:52.775Z,5.77
2022-11-24T11:42:01.729Z,5.77
2022-11-24T11:43:31.848Z,5.78
2022-11-24T11:45:01.213Z,5.75
2022-11-24T11:46:10.063Z,5.76
2022-11-24T11:47:25.668Z,5.77
2022-11-24T11:48:43.707Z,5.82
2022-11-24T11:49:49.488Z,5.80
2022-11-24T11:51:27.474Z,5.87
2022-11-24T11:52:42.267Z,5.89
2022-11-24T11:54:12.496Z,5.91
2022-11-24T11:55:27.325Z,5.92
2022-11-24T11:56:49.500Z,5.92
2022-11-24T11:58:24.305Z,5.99
2022-11-24T11:59:51.245Z,5.97
2022-11-24T12:01:34.248Z,6.04
2022-11-24T12:02:46.114Z,6.04
2022-11-24T12:04:13.953Z,6.02
2022-11-24T12:05:30.809Z,5.96
2022-11-24T12:06:42.417Z,6.04
2022-11-24T12:07:54.042Z,6.08
2022-11-24T12:09:32.809Z,6.04
2022-11-24T12:10:39.473Z,6.01
2022-11-24T12:12:21.503Z,5.98
2022-11-24T12:13:38.849Z,5.96
2022-11-24T12:15:10.796Z,5.95
2022-11-24T12:16:48.551Z,5.96
2022-11-24T12:18:40.232Z,5.97
2022-11-24T12:20:01.398Z,5.98
2022-11-24T12:21:39.519Z,6.01
2022-11-24T12:23:03.133Z,5.93
2022-11-24T12:24:32.572Z,5.95
2022-11-24T12:25:42.170Z,5.98
2022-11-24T12:26:54.174Z,5.97
2022-11-24T12:28:30.321Z,6.01
2022-11-24T12:29:53.587Z,5.97
2022-11-24T12:31:07.225Z,5.98
2022-11-24T12:32:39.160Z,5.93
2022-11-24T12:34:00.826Z,5.98
2022-11-24T12:35:09.778Z,6.01
2022-11-24T12:36:45.816Z,6.02
2022-11-24T12:38:22.712Z,6.05
2022-11-24T12:39:34.905Z,6.07
2022-11-24T12:41:25.604Z,6.06
2022-11-24T12:43:02.810Z,6.13
2022-11-24T12:44:21.086Z,6.21
2022-11-24T12:45:42.650Z,6.15
2022-11-24T12:47:03.957Z,6.14
2022-11-24T12:48:36.537Z,6.21
2022-11-24T12:50:10.760Z,6.12
2022-11-24T12:51:24.620Z,6.14
2022-11-24T12:52:36.299Z,6.15
2022-11-24T12:53:39.330Z,6.09
2022-11-24T12:54:42.119Z,6.05
2022-11-24T12:55:46.411Z,6.06
2022-11-24T12:57:05.910Z,5.98
2022-11-24T12:58:32.195Z,5.91
2022-11-24T12:59:59.710Z,5.87
2022-11-24T13:01:25.527Z,5.85
2022-11-24T13:02:47.672Z,5.91
2022-11-24T13:04:28.638Z,5.88
2022-11-24T13:05:36.747Z,5.95
2022-11-24T13:07:00.841Z,5.87
2022-11-24T13:08:05.588Z,5.87
2022-11-24T13:09:10.677Z,5.93
2022-11-24T13:10:58.558Z,5.84
2022-11-24T13:11:55.824Z,5.83
2022-11-24T13:13:13.237Z,5.80
2022-11-24T13:14:34.683Z,5.76
2022-11-24T13:17:36.310Z,5.80
2022-11-24T13:18:57.685Z,5.83
2022-11-24T13:20:21.770Z,5.82
2022-11-24T13:21:52.026Z,5.82
2022-11-24T13:23:03.620Z,5.79
2022-11-24T13:24:19.343Z,5.78
2022-11-24T13:25:29.760Z,5.75
2022-11-24T13:26:41.506Z,5.77
2022-11-24T13:27:48.384Z,5.78
2022-11-24T13:29:12.978Z,5.83
2022-11-24T13:30:33.914Z,5.86
2022-11-24T13:31:36.964Z,5.90
2022-11-24T13:32:39.916Z,5.83
2022-11-24T13:33:43.052Z,5.86
2022-11-24T13:34:46.036Z,5.87
2022-11-24T13:36:08.112Z,5.85
2022-11-24T13:37:32.056Z,5.83
2022-11-24T13:38:47.049Z,5.83
2022-11-24T13:39:53.382Z,5.83
2022-11-24T13:41:13.506Z,5.78
2022-11-24T13:42:43.972Z,5.76
2022-11-24T13:44:15.570Z,5.81
2022-11-24T13:45:40.356Z,5.82
2022-11-24T13:47:01.738Z,5.89
2022-11-24T13:48:21.693Z,5.86
2022-11-24T13:49:37.340Z,5.88
2022-11-24T13:51:09.133Z,5.83
2022-11-24T13:52:39.809Z,5.85
2022-11-24T13:53:50.746Z,5.83
2022-11-24T13:54:53.581Z,5.86
2022-11-24T13:56:06.077Z,5.85
2022-11-24T13:57:39.514Z,5.86
2022-11-24T13:58:44.979Z,5.85
2022-11-24T13:59:50.996Z,5.78
2022-11-24T14:01:07.149Z,5.77
2022-11-24T14:02:24.229Z,5.76
2022-11-24T14:03:31.728Z,5.84
2022-11-24T14:04:39.713Z,5.78
2022-11-24T14:05:49.305Z,5.75
2022-11-24T14:06:52.071Z,5.83
2022-11-24T14:07:55.058Z,5.83
2022-11-24T14:09:06.955Z,5.85
2022-11-24T14:10:23.069Z,5.77
2022-11-24T14:11:28.842Z,5.77
2022-11-24T14:12:34.025Z,5.82
2022-11-24T14:13:37.040Z,5.80
2022-11-24T14:14:40.628Z,5.91
2022-11-24T14:15:43.703Z,5.85
2022-11-24T14:16:46.763Z,5.91
2022-11-24T14:17:49.686Z,5.93
2022-11-24T14:18:52.703Z,5.93
2022-11-24T14:19:57.340Z,5.94
2022-11-24T14:21:16.446Z,5.93
2022-11-24T14:22:27.057Z,5.91
2022-11-24T14:23:29.908Z,5.87
2022-11-24T14:24:38.245Z,5.86
2022-11-24T14:25:49.674Z,5.90
2022-11-24T14:26:52.990Z,5.96
2022-11-24T14:27:56.559Z,5.87
2022-11-24T14:29:16.911Z,5.83
2022-11-24T14:30:23.275Z,5.91
2022-11-24T14:31:27.398Z,5.87
2022-11-24T14:32:30.643Z,5.83
2022-11-24T14:33:33.569Z,5.78
2022-11-24T14:34:36.534Z,5.75
2022-11-24T14:35:44.920Z,5.72
2022-11-24T14:36:51.778Z,5.72
2022-11-24T14:37:55.005Z,5.73
2022-11-24T14:38:57.834Z,5.74
2022-11-24T14:40:00.725Z,5.76
2022-11-24T14:41:16.818Z,5.73
2022-11-24T14:42:25.732Z,5.70
2022-11-24T14:43:33.294Z,5.72
2022-11-24T14:44:42.164Z,5.68
2022-11-24T14:45:54.147Z,5.65
2022-11-24T14:47:14.248Z,5.64
2022-11-24T14:48:20.877Z,5.61
2022-11-24T14:49:24.001Z,5.67
2022-11-24T14:50:27.045Z,5.65
2022-11-24T14:51:34.329Z,5.65
2022-11-24T14:52:50.440Z,5.62
2022-11-24T14:54:06.631Z,5.69
2022-11-24T14:55:25.736Z,5.64
2022-11-24T14:56:32.186Z,5.64
2022-11-24T14:57:37.855Z,5.56
2022-11-24T14:58:42.625Z,5.52
2022-11-24T15:00:19.739Z,5.57
2022-11-24T15:01:28.600Z,5.61
2022-11-24T15:02:52.241Z,5.67
2022-11-24T15:04:38.912Z,5.63
2022-11-24T15:05:54.873Z,5.60
2022-11-24T15:07:24.575Z,5.47
2022-11-24T15:08:35.993Z,5.43
2022-11-24T15:09:48.209Z,5.34
2022-11-24T15:11:00.598Z,5.36
2022-11-24T15:12:16.737Z,5.37
2022-11-24T15:13:24.760Z,5.29
2022-11-24T15:14:39.889Z,5.27
2022-11-24T15:15:50.022Z,5.24
2022-11-24T15:16:53.039Z,5.20
2022-11-24T15:17:58.680Z,5.21